sensor_id;sensor_type;location;lat;lon;timestamp;P1;durP1;ratioP1;P2;durP2;ratioP2
13279;SDS011;6708;49.814;8.652;2022-12-18T00:00:39;22.27;;;11.80;;
13279;SDS011;6708;49.814;8.652;2022-12-18T00:03:08;13.57;;;9.10;;
13279;SDS011;6708;49.814;8.652;2022-12-18T00:05:45;17.27;;;11.67;;
13279;SDS011;6708;49.814;8.652;2022-12-18T00:08:17;28.33;;;15.03;;
13279;SDS011;6708;49.814;8.652;2022-12-18T00:10:46;18.00;;;12.43;;
13279;SDS011;6708;49.814;8.652;2022-12-18T00:13:18;22.30;;;12.20;;
13279;SDS011;6708;49.814;8.652;2022-12-18T00:15:48;22.97;;;13.40;;
13279;SDS011;6708;49.814;8.652;2022-12-18T00:18:18;29.33;;;13.77;;
13279;SDS011;6708;49.814;8.652;2022-12-18T00:20:47;16.73;;;9.63;;
13279;SDS011;6708;49.814;8.652;2022-12-18T00:23:16;25.73;;;12.83;;
13279;SDS011;6708;49.814;8.652;2022-12-18T00:25:46;11.63;;;8.60;;
13279;SDS011;6708;49.814;8.652;2022-12-18T00:28:18;16.00;;;11.03;;
13279;SDS011;6708;49.814;8.652;2022-12-18T00:30:46;15.93;;;9.27;;
13279;SDS011;6708;49.814;8.652;2022-12-18T00:33:16;22.43;;;12.03;;
13279;SDS011;6708;49.814;8.652;2022-12-18T00:35:45;24.73;;;11.53;;
13279;SDS011;6708;49.814;8.652;2022-12-18T00:38:14;14.87;;;9.90;;
13279;SDS011;6708;49.814;8.652;2022-12-18T00:40:43;23.57;;;12.60;;
13279;SDS011;6708;49.814;8.652;2022-12-18T00:43:19;18.37;;;10.80;;
13279;SDS011;6708;49.814;8.652;2022-12-18T00:45:45;17.90;;;11.20;;
13279;SDS011;6708;49.814;8.652;2022-12-18T00:48:14;22.37;;;11.83;;
13279;SDS011;6708;49.814;8.652;2022-12-18T00:50:43;12.83;;;10.20;;
13279;SDS011;6708;49.814;8.652;2022-12-18T00:53:14;17.70;;;11.57;;
13279;SDS011;6708;49.814;8.652;2022-12-18T00:55:43;19.70;;;11.17;;
13279;SDS011;6708;49.814;8.652;2022-12-18T00:58:13;16.97;;;10.57;;
13279;SDS011;6708;49.814;8.652;2022-12-18T01:00:47;20.50;;;12.10;;
13279;SDS011;6708;49.814;8.652;2022-12-18T01:03:15;13.43;;;7.83;;
13279;SDS011;6708;49.814;8.652;2022-12-18T01:05:44;11.77;;;7.20;;
13279;SDS011;6708;49.814;8.652;2022-12-18T01:08:13;27.70;;;13.53;;
13279;SDS011;6708;49.814;8.652;2022-12-18T01:10:42;18.43;;;11.00;;
13279;SDS011;6708;49.814;8.652;2022-12-18T01:13:11;10.40;;;7.37;;
13279;SDS011;6708;49.814;8.652;2022-12-18T01:15:40;16.57;;;7.80;;
13279;SDS011;6708;49.814;8.652;2022-12-18T01:18:13;6.43;;;5.17;;
13279;SDS011;6708;49.814;8.652;2022-12-18T01:20:43;14.27;;;7.67;;
13279;SDS011;6708;49.814;8.652;2022-12-18T01:23:12;9.80;;;8.47;;
13279;SDS011;6708;49.814;8.652;2022-12-18T01:25:40;14.83;;;6.93;;
13279;SDS011;6708;49.814;8.652;2022-12-18T01:28:09;16.70;;;9.30;;
13279;SDS011;6708;49.814;8.652;2022-12-18T01:30:39;12.50;;;7.67;;
13279;SDS011;6708;49.814;8.652;2022-12-18T01:33:08;11.53;;;9.03;;
13279;SDS011;6708;49.814;8.652;2022-12-18T01:35:45;10.93;;;6.53;;
13279;SDS011;6708;49.814;8.652;2022-12-18T01:38:13;13.83;;;8.40;;
13279;SDS011;6708;49.814;8.652;2022-12-18T01:40:43;12.47;;;8.23;;
13279;SDS011;6708;49.814;8.652;2022-12-18T01:43:12;22.90;;;10.90;;
13279;SDS011;6708;49.814;8.652;2022-12-18T01:45:41;18.80;;;11.30;;
13279;SDS011;6708;49.814;8.652;2022-12-18T01:48:11;13.77;;;8.90;;
13279;SDS011;6708;49.814;8.652;2022-12-18T01:50:43;15.73;;;9.47;;
13279;SDS011;6708;49.814;8.652;2022-12-18T01:53:12;16.10;;;8.17;;
13279;SDS011;6708;49.814;8.652;2022-12-18T01:55:43;15.03;;;9.13;;
13279;SDS011;6708;49.814;8.652;2022-12-18T01:58:19;18.03;;;10.17;;
13279;SDS011;6708;49.814;8.652;2022-12-18T02:00:51;19.80;;;10.47;;
13279;SDS011;6708;49.814;8.652;2022-12-18T02:03:20;12.53;;;8.67;;
13279;SDS011;6708;49.814;8.652;2022-12-18T02:05:53;15.57;;;9.17;;
13279;SDS011;6708;49.814;8.652;2022-12-18T02:08:27;16.67;;;8.47;;
13279;SDS011;6708;49.814;8.652;2022-12-18T02:11:03;16.33;;;9.43;;
13279;SDS011;6708;49.814;8.652;2022-12-18T02:13:36;16.57;;;9.73;;
13279;SDS011;6708;49.814;8.652;2022-12-18T02:16:12;11.07;;;8.10;;
13279;SDS011;6708;49.814;8.652;2022-12-18T02:18:47;13.87;;;9.63;;
13279;SDS011;6708;49.814;8.652;2022-12-18T02:21:24;13.33;;;8.73;;
13279;SDS011;6708;49.814;8.652;2022-12-18T02:24:00;14.83;;;10.50;;
13279;SDS011;6708;49.814;8.652;2022-12-18T02:26:43;16.37;;;10.93;;
13279;SDS011;6708;49.814;8.652;2022-12-18T02:29:16;16.60;;;10.03;;
13279;SDS011;6708;49.814;8.652;2022-12-18T02:31:48;13.57;;;8.90;;
13279;SDS011;6708;49.814;8.652;2022-12-18T02:34:18;16.77;;;10.03;;
13279;SDS011;6708;49.814;8.652;2022-12-18T02:36:48;13.20;;;9.17;;
13279;SDS011;6708;49.814;8.652;2022-12-18T02:39:18;21.63;;;11.10;;
13279;SDS011;6708;49.814;8.652;2022-12-18T02:42:04;16.70;;;11.20;;
13279;SDS011;6708;49.814;8.652;2022-12-18T02:44:34;22.97;;;11.30;;
13279;SDS011;6708;49.814;8.652;2022-12-18T02:47:03;16.60;;;10.73;;
13279;SDS011;6708;49.814;8.652;2022-12-18T02:49:34;17.33;;;10.17;;
13279;SDS011;6708;49.814;8.652;2022-12-18T02:52:11;17.10;;;11.03;;
13279;SDS011;6708;49.814;8.652;2022-12-18T02:54:59;19.03;;;11.67;;
13279;SDS011;6708;49.814;8.652;2022-12-18T02:57:37;13.70;;;9.47;;
13279;SDS011;6708;49.814;8.652;2022-12-18T03:00:10;16.43;;;11.37;;
13279;SDS011;6708;49.814;8.652;2022-12-18T03:02:42;16.43;;;10.03;;
13279;SDS011;6708;49.814;8.652;2022-12-18T03:05:16;18.33;;;11.97;;
13279;SDS011;6708;49.814;8.652;2022-12-18T03:07:47;14.97;;;9.43;;
13279;SDS011;6708;49.814;8.652;2022-12-18T03:10:20;18.20;;;11.27;;
13279;SDS011;6708;49.814;8.652;2022-12-18T03:13:02;15.60;;;10.73;;
13279;SDS011;6708;49.814;8.652;2022-12-18T03:15:34;18.63;;;12.57;;
13279;SDS011;6708;49.814;8.652;2022-12-18T03:18:09;16.93;;;11.27;;
13279;SDS011;6708;49.814;8.652;2022-12-18T03:20:39;13.33;;;10.67;;
13279;SDS011;6708;49.814;8.652;2022-12-18T03:23:13;18.83;;;11.67;;
13279;SDS011;6708;49.814;8.652;2022-12-18T03:25:49;14.47;;;10.20;;
13279;SDS011;6708;49.814;8.652;2022-12-18T03:28:26;16.13;;;10.60;;
13279;SDS011;6708;49.814;8.652;2022-12-18T03:30:59;17.77;;;8.93;;
13279;SDS011;6708;49.814;8.652;2022-12-18T03:33:30;16.03;;;11.53;;
13279;SDS011;6708;49.814;8.652;2022-12-18T03:36:00;17.47;;;10.93;;
13279;SDS011;6708;49.814;8.652;2022-12-18T03:38:28;12.70;;;9.50;;
13279;SDS011;6708;49.814;8.652;2022-12-18T03:40:59;18.27;;;11.03;;
13279;SDS011;6708;49.814;8.652;2022-12-18T03:43:42;17.97;;;11.23;;
13279;SDS011;6708;49.814;8.652;2022-12-18T03:46:17;12.90;;;9.60;;
13279;SDS011;6708;49.814;8.652;2022-12-18T03:48:55;16.00;;;9.57;;
13279;SDS011;6708;49.814;8.652;2022-12-18T03:51:30;12.13;;;9.77;;
13279;SDS011;6708;49.814;8.652;2022-12-18T03:54:05;18.00;;;11.47;;
13279;SDS011;6708;49.814;8.652;2022-12-18T03:56:42;17.50;;;11.30;;
13279;SDS011;6708;49.814;8.652;2022-12-18T03:59:16;18.93;;;12.13;;
13279;SDS011;6708;49.814;8.652;2022-12-18T04:01:47;11.30;;;8.23;;
13279;SDS011;6708;49.814;8.652;2022-12-18T04:04:18;19.37;;;12.90;;
13279;SDS011;6708;49.814;8.652;2022-12-18T04:06:48;12.57;;;10.00;;
13279;SDS011;6708;49.814;8.652;2022-12-18T04:09:18;18.67;;;10.90;;
13279;SDS011;6708;49.814;8.652;2022-12-18T04:11:48;19.73;;;12.30;;
13279;SDS011;6708;49.814;8.652;2022-12-18T04:14:19;18.57;;;12.73;;
13279;SDS011;6708;49.814;8.652;2022-12-18T04:16:52;18.53;;;12.13;;
13279;SDS011;6708;49.814;8.652;2022-12-18T04:19:27;16.77;;;11.23;;
13279;SDS011;6708;49.814;8.652;2022-12-18T04:21:57;15.30;;;9.13;;
13279;SDS011;6708;49.814;8.652;2022-12-18T04:24:29;16.80;;;11.83;;
13279;SDS011;6708;49.814;8.652;2022-12-18T04:27:05;15.97;;;9.30;;
13279;SDS011;6708;49.814;8.652;2022-12-18T04:29:44;13.70;;;9.00;;
13279;SDS011;6708;49.814;8.652;2022-12-18T04:32:14;15.10;;;9.47;;
13279;SDS011;6708;49.814;8.652;2022-12-18T04:34:43;16.87;;;10.10;;
13279;SDS011;6708;49.814;8.652;2022-12-18T04:37:14;27.27;;;11.73;;
13279;SDS011;6708;49.814;8.652;2022-12-18T04:39:44;13.87;;;9.73;;
13279;SDS011;6708;49.814;8.652;2022-12-18T04:42:20;18.10;;;11.07;;
13279;SDS011;6708;49.814;8.652;2022-12-18T04:44:51;18.90;;;9.70;;
13279;SDS011;6708;49.814;8.652;2022-12-18T04:47:20;13.63;;;7.23;;
13279;SDS011;6708;49.814;8.652;2022-12-18T04:49:48;14.77;;;9.87;;
13279;SDS011;6708;49.814;8.652;2022-12-18T04:52:17;13.00;;;9.13;;
13279;SDS011;6708;49.814;8.652;2022-12-18T04:54:45;15.47;;;10.17;;
13279;SDS011;6708;49.814;8.652;2022-12-18T04:57:14;17.07;;;10.03;;
13279;SDS011;6708;49.814;8.652;2022-12-18T04:59:43;15.27;;;10.53;;
13279;SDS011;6708;49.814;8.652;2022-12-18T05:02:14;17.43;;;9.63;;
13279;SDS011;6708;49.814;8.652;2022-12-18T05:04:43;17.03;;;10.70;;
13279;SDS011;6708;49.814;8.652;2022-12-18T05:07:13;13.43;;;9.63;;
13279;SDS011;6708;49.814;8.652;2022-12-18T05:09:41;16.63;;;10.00;;
13279;SDS011;6708;49.814;8.652;2022-12-18T05:12:10;21.80;;;9.30;;
13279;SDS011;6708;49.814;8.652;2022-12-18T05:14:38;12.70;;;8.63;;
13279;SDS011;6708;49.814;8.652;2022-12-18T05:17:07;12.30;;;8.07;;
13279;SDS011;6708;49.814;8.652;2022-12-18T05:19:42;19.10;;;10.10;;
13279;SDS011;6708;49.814;8.652;2022-12-18T05:22:10;11.00;;;6.93;;
13279;SDS011;6708;49.814;8.652;2022-12-18T05:24:41;10.43;;;6.50;;
13279;SDS011;6708;49.814;8.652;2022-12-18T05:27:10;4.87;;;4.43;;
13279;SDS011;6708;49.814;8.652;2022-12-18T05:29:39;9.57;;;7.63;;
13279;SDS011;6708;49.814;8.652;2022-12-18T05:32:07;10.10;;;6.57;;
13279;SDS011;6708;49.814;8.652;2022-12-18T05:34:36;10.87;;;6.87;;
13279;SDS011;6708;49.814;8.652;2022-12-18T05:37:07;12.37;;;8.80;;
13279;SDS011;6708;49.814;8.652;2022-12-18T05:39:35;10.77;;;8.10;;
13279;SDS011;6708;49.814;8.652;2022-12-18T05:42:04;23.67;;;10.43;;
13279;SDS011;6708;49.814;8.652;2022-12-18T05:44:33;11.20;;;8.17;;
13279;SDS011;6708;49.814;8.652;2022-12-18T05:47:03;10.43;;;8.77;;
13279;SDS011;6708;49.814;8.652;2022-12-18T05:49:32;12.63;;;9.10;;
13279;SDS011;6708;49.814;8.652;2022-12-18T05:52:00;11.47;;;7.93;;
13279;SDS011;6708;49.814;8.652;2022-12-18T05:54:35;15.90;;;9.67;;
13279;SDS011;6708;49.814;8.652;2022-12-18T05:57:07;12.70;;;7.73;;
13279;SDS011;6708;49.814;8.652;2022-12-18T05:59:36;13.07;;;7.80;;
13279;SDS011;6708;49.814;8.652;2022-12-18T06:02:05;19.57;;;9.37;;
13279;SDS011;6708;49.814;8.652;2022-12-18T06:04:33;16.40;;;9.70;;
13279;SDS011;6708;49.814;8.652;2022-12-18T06:07:05;10.37;;;8.20;;
13279;SDS011;6708;49.814;8.652;2022-12-18T06:09:36;11.63;;;6.97;;
13279;SDS011;6708;49.814;8.652;2022-12-18T06:12:05;12.47;;;8.67;;
13279;SDS011;6708;49.814;8.652;2022-12-18T06:14:35;9.00;;;6.70;;
13279;SDS011;6708;49.814;8.652;2022-12-18T06:17:04;13.80;;;8.17;;
13279;SDS011;6708;49.814;8.652;2022-12-18T06:19:33;10.13;;;6.33;;
13279;SDS011;6708;49.814;8.652;2022-12-18T06:22:01;13.47;;;8.53;;
13279;SDS011;6708;49.814;8.652;2022-12-18T06:24:30;9.17;;;4.27;;
13279;SDS011;6708;49.814;8.652;2022-12-18T06:27:02;15.47;;;7.37;;
13279;SDS011;6708;49.814;8.652;2022-12-18T06:29:30;10.93;;;6.87;;
13279;SDS011;6708;49.814;8.652;2022-12-18T06:31:59;10.63;;;7.30;;
13279;SDS011;6708;49.814;8.652;2022-12-18T06:34:32;18.07;;;9.53;;
13279;SDS011;6708;49.814;8.652;2022-12-18T06:37:00;12.60;;;8.17;;
13279;SDS011;6708;49.814;8.652;2022-12-18T06:39:29;12.27;;;7.83;;
13279;SDS011;6708;49.814;8.652;2022-12-18T06:41:58;8.67;;;7.40;;
13279;SDS011;6708;49.814;8.652;2022-12-18T06:44:30;13.90;;;9.17;;
13279;SDS011;6708;49.814;8.652;2022-12-18T06:46:58;12.63;;;8.13;;
13279;SDS011;6708;49.814;8.652;2022-12-18T06:49:27;14.63;;;8.37;;
13279;SDS011;6708;49.814;8.652;2022-12-18T06:51:56;11.57;;;8.17;;
13279;SDS011;6708;49.814;8.652;2022-12-18T06:54:24;13.73;;;9.33;;
13279;SDS011;6708;49.814;8.652;2022-12-18T06:56:56;14.43;;;8.70;;
13279;SDS011;6708;49.814;8.652;2022-12-18T06:59:24;19.07;;;9.53;;
13279;SDS011;6708;49.814;8.652;2022-12-18T07:01:56;13.93;;;9.13;;
13279;SDS011;6708;49.814;8.652;2022-12-18T07:04:27;11.73;;;8.57;;
13279;SDS011;6708;49.814;8.652;2022-12-18T07:06:56;9.57;;;7.63;;
13279;SDS011;6708;49.814;8.652;2022-12-18T07:09:24;5.90;;;5.27;;
13279;SDS011;6708;49.814;8.652;2022-12-18T07:11:53;13.90;;;8.93;;
13279;SDS011;6708;49.814;8.652;2022-12-18T07:14:21;15.00;;;9.00;;
13279;SDS011;6708;49.814;8.652;2022-12-18T07:16:50;13.30;;;8.90;;
13279;SDS011;6708;49.814;8.652;2022-12-18T07:19:23;12.33;;;7.97;;
13279;SDS011;6708;49.814;8.652;2022-12-18T07:21:52;14.27;;;11.00;;
13279;SDS011;6708;49.814;8.652;2022-12-18T07:24:20;10.33;;;7.37;;
13279;SDS011;6708;49.814;8.652;2022-12-18T07:26:49;12.33;;;8.83;;
13279;SDS011;6708;49.814;8.652;2022-12-18T07:29:18;9.33;;;6.87;;
13279;SDS011;6708;49.814;8.652;2022-12-18T07:31:46;7.77;;;5.80;;
13279;SDS011;6708;49.814;8.652;2022-12-18T07:34:27;12.83;;;5.53;;
13279;SDS011;6708;49.814;8.652;2022-12-18T07:36:56;7.03;;;4.67;;
13279;SDS011;6708;49.814;8.652;2022-12-18T07:39:24;11.33;;;7.70;;
13279;SDS011;6708;49.814;8.652;2022-12-18T07:41:54;15.03;;;8.23;;
13279;SDS011;6708;49.814;8.652;2022-12-18T07:44:39;11.23;;;7.23;;
13279;SDS011;6708;49.814;8.652;2022-12-18T07:47:07;12.87;;;7.17;;
13279;SDS011;6708;49.814;8.652;2022-12-18T07:49:39;9.60;;;7.37;;
13279;SDS011;6708;49.814;8.652;2022-12-18T07:52:07;10.57;;;6.93;;
13279;SDS011;6708;49.814;8.652;2022-12-18T07:54:37;12.20;;;8.50;;
13279;SDS011;6708;49.814;8.652;2022-12-18T07:57:06;17.43;;;8.13;;
13279;SDS011;6708;49.814;8.652;2022-12-18T07:59:34;14.63;;;9.17;;
13279;SDS011;6708;49.814;8.652;2022-12-18T08:02:03;18.90;;;8.80;;
13279;SDS011;6708;49.814;8.652;2022-12-18T08:04:35;19.77;;;8.33;;
13279;SDS011;6708;49.814;8.652;2022-12-18T08:07:06;11.77;;;7.97;;
13279;SDS011;6708;49.814;8.652;2022-12-18T08:09:35;9.57;;;7.63;;
13279;SDS011;6708;49.814;8.652;2022-12-18T08:12:03;12.00;;;8.00;;
13279;SDS011;6708;49.814;8.652;2022-12-18T08:14:33;4.30;;;4.00;;
13279;SDS011;6708;49.814;8.652;2022-12-18T08:17:01;11.23;;;7.57;;
13279;SDS011;6708;49.814;8.652;2022-12-18T08:19:30;19.07;;;8.03;;
13279;SDS011;6708;49.814;8.652;2022-12-18T08:21:59;15.53;;;9.40;;
13279;SDS011;6708;49.814;8.652;2022-12-18T08:24:30;15.17;;;8.73;;
13279;SDS011;6708;49.814;8.652;2022-12-18T08:26:59;17.53;;;10.63;;
13279;SDS011;6708;49.814;8.652;2022-12-18T08:29:27;12.37;;;5.97;;
13279;SDS011;6708;49.814;8.652;2022-12-18T08:31:57;9.50;;;7.30;;
13279;SDS011;6708;49.814;8.652;2022-12-18T08:34:25;11.53;;;7.60;;
13279;SDS011;6708;49.814;8.652;2022-12-18T08:36:54;11.53;;;7.03;;
13279;SDS011;6708;49.814;8.652;2022-12-18T08:39:22;17.47;;;8.90;;
13279;SDS011;6708;49.814;8.652;2022-12-18T08:41:54;16.53;;;11.93;;
13279;SDS011;6708;49.814;8.652;2022-12-18T08:44:34;15.00;;;8.63;;
13279;SDS011;6708;49.814;8.652;2022-12-18T08:47:06;20.00;;;12.00;;
13279;SDS011;6708;49.814;8.652;2022-12-18T08:49:35;14.03;;;9.27;;
13279;SDS011;6708;49.814;8.652;2022-12-18T08:52:04;19.70;;;10.93;;
13279;SDS011;6708;49.814;8.652;2022-12-18T08:54:34;23.63;;;11.87;;
13279;SDS011;6708;49.814;8.652;2022-12-18T08:57:05;17.10;;;11.50;;
13279;SDS011;6708;49.814;8.652;2022-12-18T08:59:33;18.40;;;10.50;;
13279;SDS011;6708;49.814;8.652;2022-12-18T09:02:02;21.13;;;10.83;;
13279;SDS011;6708;49.814;8.652;2022-12-18T09:04:30;16.47;;;10.77;;
13279;SDS011;6708;49.814;8.652;2022-12-18T09:06:59;16.30;;;11.73;;
13279;SDS011;6708;49.814;8.652;2022-12-18T09:09:27;20.97;;;11.53;;
13279;SDS011;6708;49.814;8.652;2022-12-18T09:11:56;30.27;;;14.97;;
13279;SDS011;6708;49.814;8.652;2022-12-18T09:14:27;22.00;;;12.73;;
13279;SDS011;6708;49.814;8.652;2022-12-18T09:16:55;17.87;;;9.87;;
13279;SDS011;6708;49.814;8.652;2022-12-18T09:19:23;16.10;;;11.23;;
13279;SDS011;6708;49.814;8.652;2022-12-18T09:21:52;20.63;;;11.27;;
13279;SDS011;6708;49.814;8.652;2022-12-18T09:24:23;16.30;;;9.60;;
13279;SDS011;6708;49.814;8.652;2022-12-18T09:26:52;18.83;;;12.57;;
13279;SDS011;6708;49.814;8.652;2022-12-18T09:29:21;15.93;;;10.97;;
13279;SDS011;6708;49.814;8.652;2022-12-18T09:31:52;13.67;;;10.80;;
13279;SDS011;6708;49.814;8.652;2022-12-18T09:34:20;12.40;;;6.77;;
13279;SDS011;6708;49.814;8.652;2022-12-18T09:36:49;13.87;;;10.10;;
13279;SDS011;6708;49.814;8.652;2022-12-18T09:39:18;14.47;;;9.93;;
13279;SDS011;6708;49.814;8.652;2022-12-18T09:41:47;20.27;;;11.40;;
13279;SDS011;6708;49.814;8.652;2022-12-18T09:44:20;14.13;;;10.43;;
13279;SDS011;6708;49.814;8.652;2022-12-18T09:46:57;16.13;;;11.33;;
13279;SDS011;6708;49.814;8.652;2022-12-18T09:49:34;21.47;;;13.33;;
13279;SDS011;6708;49.814;8.652;2022-12-18T09:52:05;22.57;;;14.43;;
13279;SDS011;6708;49.814;8.652;2022-12-18T09:54:38;22.10;;;13.60;;
13279;SDS011;6708;49.814;8.652;2022-12-18T09:57:13;18.27;;;13.57;;
13279;SDS011;6708;49.814;8.652;2022-12-18T09:59:43;23.90;;;15.30;;
13279;SDS011;6708;49.814;8.652;2022-12-18T10:02:19;23.27;;;15.47;;
13279;SDS011;6708;49.814;8.652;2022-12-18T10:04:55;22.67;;;14.73;;
13279;SDS011;6708;49.814;8.652;2022-12-18T10:07:40;19.60;;;13.53;;
13279;SDS011;6708;49.814;8.652;2022-12-18T10:10:19;25.07;;;15.37;;
13279;SDS011;6708;49.814;8.652;2022-12-18T10:12:55;22.57;;;15.47;;
13279;SDS011;6708;49.814;8.652;2022-12-18T10:15:29;20.33;;;15.70;;
13279;SDS011;6708;49.814;8.652;2022-12-18T10:18:06;18.83;;;14.40;;
13279;SDS011;6708;49.814;8.652;2022-12-18T10:20:44;21.07;;;14.63;;
13279;SDS011;6708;49.814;8.652;2022-12-18T10:23:16;21.07;;;14.80;;
13279;SDS011;6708;49.814;8.652;2022-12-18T10:25:51;23.33;;;15.23;;
13279;SDS011;6708;49.814;8.652;2022-12-18T10:28:22;22.57;;;15.10;;
13279;SDS011;6708;49.814;8.652;2022-12-18T10:30:51;20.43;;;14.57;;
13279;SDS011;6708;49.814;8.652;2022-12-18T10:33:23;19.30;;;14.83;;
13279;SDS011;6708;49.814;8.652;2022-12-18T10:35:55;22.17;;;14.17;;
13279;SDS011;6708;49.814;8.652;2022-12-18T10:38:25;25.33;;;16.33;;
13279;SDS011;6708;49.814;8.652;2022-12-18T10:40:59;19.17;;;15.47;;
13279;SDS011;6708;49.814;8.652;2022-12-18T10:43:31;25.33;;;15.90;;
13279;SDS011;6708;49.814;8.652;2022-12-18T10:46:02;24.60;;;14.77;;
13279;SDS011;6708;49.814;8.652;2022-12-18T10:48:55;23.00;;;15.90;;
13279;SDS011;6708;49.814;8.652;2022-12-18T10:51:25;25.37;;;15.27;;
13279;SDS011;6708;49.814;8.652;2022-12-18T10:53:56;24.53;;;17.90;;
13279;SDS011;6708;49.814;8.652;2022-12-18T10:56:30;23.10;;;15.63;;
13279;SDS011;6708;49.814;8.652;2022-12-18T10:59:04;23.93;;;15.63;;
13279;SDS011;6708;49.814;8.652;2022-12-18T11:01:45;24.43;;;16.57;;
13279;SDS011;6708;49.814;8.652;2022-12-18T11:04:19;20.87;;;16.60;;
13279;SDS011;6708;49.814;8.652;2022-12-18T11:06:56;20.60;;;14.80;;
13279;SDS011;6708;49.814;8.652;2022-12-18T11:09:26;23.03;;;16.50;;
13279;SDS011;6708;49.814;8.652;2022-12-18T11:11:57;23.63;;;15.00;;
13279;SDS011;6708;49.814;8.652;2022-12-18T11:14:32;28.27;;;16.60;;
13279;SDS011;6708;49.814;8.652;2022-12-18T11:17:01;24.60;;;15.77;;
13279;SDS011;6708;49.814;8.652;2022-12-18T11:19:34;24.90;;;16.03;;
13279;SDS011;6708;49.814;8.652;2022-12-18T11:22:16;21.10;;;15.83;;
13279;SDS011;6708;49.814;8.652;2022-12-18T11:24:52;21.63;;;15.23;;
13279;SDS011;6708;49.814;8.652;2022-12-18T11:27:22;26.07;;;17.17;;
13279;SDS011;6708;49.814;8.652;2022-12-18T11:29:50;31.63;;;17.57;;
13279;SDS011;6708;49.814;8.652;2022-12-18T11:32:24;26.87;;;16.70;;
13279;SDS011;6708;49.814;8.652;2022-12-18T11:35:08;22.17;;;14.43;;
13279;SDS011;6708;49.814;8.652;2022-12-18T11:37:41;27.50;;;16.10;;
13279;SDS011;6708;49.814;8.652;2022-12-18T11:40:15;24.07;;;14.53;;
13279;SDS011;6708;49.814;8.652;2022-12-18T11:42:50;24.93;;;14.27;;
13279;SDS011;6708;49.814;8.652;2022-12-18T11:45:24;25.20;;;15.97;;
13279;SDS011;6708;49.814;8.652;2022-12-18T11:48:01;23.53;;;14.60;;
13279;SDS011;6708;49.814;8.652;2022-12-18T11:50:41;29.57;;;16.23;;
13279;SDS011;6708;49.814;8.652;2022-12-18T11:53:15;28.80;;;16.93;;
13279;SDS011;6708;49.814;8.652;2022-12-18T11:55:48;24.17;;;16.27;;
13279;SDS011;6708;49.814;8.652;2022-12-18T11:58:24;27.23;;;18.13;;
13279;SDS011;6708;49.814;8.652;2022-12-18T12:01:00;27.37;;;17.60;;
13279;SDS011;6708;49.814;8.652;2022-12-18T12:03:46;23.67;;;17.23;;
13279;SDS011;6708;49.814;8.652;2022-12-18T12:06:28;25.00;;;17.90;;
13279;SDS011;6708;49.814;8.652;2022-12-18T12:09:05;26.13;;;17.40;;
13279;SDS011;6708;49.814;8.652;2022-12-18T12:11:44;28.53;;;18.27;;
13279;SDS011;6708;49.814;8.652;2022-12-18T12:14:25;29.63;;;17.70;;
13279;SDS011;6708;49.814;8.652;2022-12-18T12:17:09;27.53;;;17.63;;
13279;SDS011;6708;49.814;8.652;2022-12-18T12:19:46;26.10;;;16.63;;
13279;SDS011;6708;49.814;8.652;2022-12-18T12:22:23;29.10;;;19.07;;
13279;SDS011;6708;49.814;8.652;2022-12-18T12:24:59;24.00;;;18.07;;
13279;SDS011;6708;49.814;8.652;2022-12-18T12:27:35;27.13;;;19.03;;
13279;SDS011;6708;49.814;8.652;2022-12-18T12:30:08;24.97;;;18.33;;
13279;SDS011;6708;49.814;8.652;2022-12-18T12:32:44;24.67;;;17.97;;
13279;SDS011;6708;49.814;8.652;2022-12-18T12:35:22;28.37;;;17.23;;
13279;SDS011;6708;49.814;8.652;2022-12-18T12:38:03;28.47;;;19.20;;
13279;SDS011;6708;49.814;8.652;2022-12-18T12:40:39;24.57;;;18.27;;
13279;SDS011;6708;49.814;8.652;2022-12-18T12:43:25;30.87;;;17.20;;
13279;SDS011;6708;49.814;8.652;2022-12-18T12:46:02;22.00;;;16.53;;
13279;SDS011;6708;49.814;8.652;2022-12-18T12:48:38;24.00;;;17.30;;
13279;SDS011;6708;49.814;8.652;2022-12-18T12:51:15;28.73;;;17.60;;
13279;SDS011;6708;49.814;8.652;2022-12-18T12:53:48;23.93;;;16.87;;
13279;SDS011;6708;49.814;8.652;2022-12-18T12:56:17;26.03;;;18.43;;
13279;SDS011;6708;49.814;8.652;2022-12-18T12:58:51;26.43;;;16.40;;
13279;SDS011;6708;49.814;8.652;2022-12-18T13:01:25;23.43;;;16.97;;
13279;SDS011;6708;49.814;8.652;2022-12-18T13:04:06;25.13;;;16.37;;
13279;SDS011;6708;49.814;8.652;2022-12-18T13:06:45;26.10;;;16.77;;
13279;SDS011;6708;49.814;8.652;2022-12-18T13:09:23;24.83;;;16.73;;
13279;SDS011;6708;49.814;8.652;2022-12-18T13:11:51;29.57;;;18.60;;
13279;SDS011;6708;49.814;8.652;2022-12-18T13:14:33;27.63;;;17.60;;
13279;SDS011;6708;49.814;8.652;2022-12-18T13:17:16;28.57;;;17.50;;
13279;SDS011;6708;49.814;8.652;2022-12-18T13:20:04;26.23;;;18.00;;
13279;SDS011;6708;49.814;8.652;2022-12-18T13:22:35;26.10;;;17.20;;
13279;SDS011;6708;49.814;8.652;2022-12-18T13:28:02;26.83;;;17.33;;
13279;SDS011;6708;49.814;8.652;2022-12-18T13:30:44;26.27;;;17.70;;
13279;SDS011;6708;49.814;8.652;2022-12-18T13:36:25;22.50;;;16.80;;
13279;SDS011;6708;49.814;8.652;2022-12-18T13:48:21;26.00;;;15.33;;
13279;SDS011;6708;49.814;8.652;2022-12-18T13:50:52;20.30;;;13.73;;
13279;SDS011;6708;49.814;8.652;2022-12-18T13:53:26;22.33;;;14.93;;
13279;SDS011;6708;49.814;8.652;2022-12-18T13:55:58;23.17;;;15.27;;
13279;SDS011;6708;49.814;8.652;2022-12-18T13:58:27;28.40;;;16.00;;
13279;SDS011;6708;49.814;8.652;2022-12-18T14:00:56;27.00;;;16.07;;
13279;SDS011;6708;49.814;8.652;2022-12-18T14:03:32;20.93;;;13.80;;
13279;SDS011;6708;49.814;8.652;2022-12-18T14:06:04;30.13;;;16.30;;
13279;SDS011;6708;49.814;8.652;2022-12-18T14:08:37;27.07;;;14.30;;
13279;SDS011;6708;49.814;8.652;2022-12-18T14:11:11;25.40;;;14.13;;
13279;SDS011;6708;49.814;8.652;2022-12-18T14:13:50;21.70;;;15.00;;
13279;SDS011;6708;49.814;8.652;2022-12-18T14:16:20;23.90;;;16.10;;
13279;SDS011;6708;49.814;8.652;2022-12-18T14:18:55;22.20;;;13.97;;
13279;SDS011;6708;49.814;8.652;2022-12-18T14:21:24;23.80;;;14.10;;
13279;SDS011;6708;49.814;8.652;2022-12-18T14:24:05;25.20;;;15.00;;
13279;SDS011;6708;49.814;8.652;2022-12-18T14:26:34;26.10;;;14.23;;
13279;SDS011;6708;49.814;8.652;2022-12-18T14:29:17;22.37;;;14.30;;
13279;SDS011;6708;49.814;8.652;2022-12-18T14:34:38;18.17;;;12.33;;
13279;SDS011;6708;49.814;8.652;2022-12-18T14:37:09;19.93;;;13.33;;
13279;SDS011;6708;49.814;8.652;2022-12-18T14:39:39;27.07;;;15.03;;
13279;SDS011;6708;49.814;8.652;2022-12-18T14:42:10;24.67;;;15.17;;
13279;SDS011;6708;49.814;8.652;2022-12-18T14:44:40;25.67;;;15.03;;
13279;SDS011;6708;49.814;8.652;2022-12-18T14:47:12;20.73;;;14.20;;
13279;SDS011;6708;49.814;8.652;2022-12-18T14:49:44;22.47;;;13.70;;
13279;SDS011;6708;49.814;8.652;2022-12-18T14:52:19;26.10;;;16.63;;
13279;SDS011;6708;49.814;8.652;2022-12-18T14:54:51;26.47;;;17.97;;
13279;SDS011;6708;49.814;8.652;2022-12-18T14:57:21;22.50;;;16.57;;
13279;SDS011;6708;49.814;8.652;2022-12-18T14:59:55;28.33;;;18.47;;
13279;SDS011;6708;49.814;8.652;2022-12-18T15:02:34;30.47;;;18.43;;
13279;SDS011;6708;49.814;8.652;2022-12-18T15:07:53;24.37;;;17.53;;
13279;SDS011;6708;49.814;8.652;2022-12-18T15:10:23;32.63;;;19.37;;
13279;SDS011;6708;49.814;8.652;2022-12-18T15:13:05;29.43;;;18.73;;
13279;SDS011;6708;49.814;8.652;2022-12-18T15:15:45;25.83;;;18.23;;
13279;SDS011;6708;49.814;8.652;2022-12-18T15:18:16;22.87;;;17.23;;
13279;SDS011;6708;49.814;8.652;2022-12-18T15:20:50;25.93;;;17.63;;
13279;SDS011;6708;49.814;8.652;2022-12-18T15:23:21;24.90;;;17.93;;
13279;SDS011;6708;49.814;8.652;2022-12-18T15:25:55;24.70;;;16.87;;
13279;SDS011;6708;49.814;8.652;2022-12-18T15:28:26;24.10;;;16.80;;
13279;SDS011;6708;49.814;8.652;2022-12-18T15:31:00;26.23;;;17.93;;